Time;durP1;ratioP1;P1;durP2;ratioP2;P2;SDS_P1;SDS_P2;PMS_P1;PMS_P2;Temp;Humidity;BMP_temperature;BMP_pressure;BME280_temperature;BME280_humidity;BME280_pressure;Samples;Min_cycle;Max_cycle;Signal;HPM_P1;HPM_P2
2021/10/05 00:01:23;;;;;;;270.23;259.27;;;11.70;99.90;;;;;;4398320;32;20183;-66
2021/10/05 00:03:50;;;;;;;255.57;245.13;;;11.70;99.90;;;;;;4396894;32;20159;-66
2021/10/05 00:06:17;;;;;;;281.13;269.80;;;11.70;99.90;;;;;;4393388;32;20469;-66
2021/10/05 00:08:49;;;;;;;283.03;271.43;;;11.60;99.90;;;;;;4395725;32;20239;-66
2021/10/05 00:11:22;;;;;;;282.13;270.43;;;11.60;99.90;;;;;;4404754;32;20170;-66
2021/10/05 00:13:51;;;;;;;274.33;263.27;;;11.60;99.90;;;;;;4399991;32;20186;-68
2021/10/05 00:16:20;;;;;;;264.60;253.77;;;11.50;99.90;;;;;;4394606;32;20184;-66
2021/10/05 00:18:49;;;;;;;289.73;277.73;;;11.50;99.90;;;;;;4396132;32;20241;-67
2021/10/05 00:21:17;;;;;;;288.00;276.13;;;11.50;99.90;;;;;;4405255;32;20590;-66
2021/10/05 00:23:47;;;;;;;300.00;287.80;;;11.60;99.90;;;;;;4416037;32;20198;-65
2021/10/05 00:26:14;;;;;;;276.90;265.57;;;11.60;99.90;;;;;;4420778;32;20649;-66
2021/10/05 00:28:41;;;;;;;293.47;281.50;;;11.70;99.90;;;;;;4412607;32;20156;-66
2021/10/05 00:31:08;;;;;;;285.77;274.33;;;11.70;99.90;;;;;;4405878;32;20208;-67
2021/10/05 00:33:37;;;;;;;275.73;264.43;;;11.70;99.90;;;;;;4406186;32;20519;-65
2021/10/05 00:36:04;;;;;;;270.10;259.00;;;11.70;99.90;;;;;;4406729;32;20193;-65
2021/10/05 00:38:31;;;;;;;296.43;284.27;;;11.60;99.90;;;;;;4418827;32;20523;-65
2021/10/05 00:40:58;;;;;;;274.70;263.10;;;11.70;99.90;;;;;;4420584;32;20199;-66
2021/10/05 00:43:25;;;;;;;258.83;248.17;;;11.80;99.90;;;;;;4408058;32;20168;-67
2021/10/05 00:45:54;;;;;;;268.47;257.60;;;11.90;99.90;;;;;;4405442;32;20171;-66
2021/10/05 00:48:21;;;;;;;271.97;260.97;;;11.90;99.90;;;;;;4405318;32;20178;-65
2021/10/05 00:50:49;;;;;;;272.73;261.57;;;11.80;99.90;;;;;;4405816;32;20166;-65
2021/10/05 00:53:16;;;;;;;272.33;261.17;;;11.80;99.90;;;;;;4415963;32;20151;-67
2021/10/05 00:55:43;;;;;;;264.43;253.47;;;11.80;99.90;;;;;;4420490;32;20187;-67
2021/10/05 00:58:12;;;;;;;275.00;263.37;;;11.80;99.90;;;;;;4419824;32;20185;-65
2021/10/05 01:00:39;;;;;;;263.90;253.17;;;11.80;99.90;;;;;;4419198;32;20204;-67
2021/10/05 01:03:08;;;;;;;261.30;250.40;;;11.70;99.90;;;;;;4405079;32;20180;-65
2021/10/05 01:05:36;;;;;;;282.57;270.77;;;11.70;99.90;;;;;;4405179;32;20159;-66
2021/10/05 01:08:07;;;;;;;269.03;258.13;;;11.70;99.90;;;;;;4421501;32;20148;-66
2021/10/05 01:10:34;;;;;;;275.13;263.50;;;11.70;99.90;;;;;;4421004;32;20633;-66
2021/10/05 01:13:01;;;;;;;265.87;255.17;;;11.70;99.90;;;;;;4419909;32;20211;-66
2021/10/05 01:15:29;;;;;;;277.70;266.37;;;11.60;99.90;;;;;;4421552;32;20174;-67
2021/10/05 01:17:56;;;;;;;282.30;270.57;;;11.50;99.90;;;;;;4420494;32;20167;-65
2021/10/05 01:20:23;;;;;;;262.17;251.40;;;11.50;99.90;;;;;;4420035;32;20155;-65
2021/10/05 01:22:57;;;;;;;262.17;251.37;;;11.50;99.90;;;;;;4407700;32;20164;-66
2021/10/05 01:25:24;;;;;;;275.53;264.30;;;11.40;99.90;;;;;;4410000;32;20246;-66
2021/10/05 01:27:52;;;;;;;269.70;258.90;;;11.40;99.90;;;;;;4422028;32;20215;-66
2021/10/05 01:30:22;;;;;;;292.20;279.90;;;11.40;99.90;;;;;;4414722;32;20176;-65
2021/10/05 01:32:51;;;;;;;257.17;246.60;;;11.40;99.90;;;;;;4405543;32;20602;-65
2021/10/05 01:35:18;;;;;;;262.77;252.20;;;11.30;99.90;;;;;;4411652;32;20221;-68
2021/10/05 01:37:48;;;;;;;287.53;275.70;;;11.30;99.90;;;;;;4423388;32;20479;-65
2021/10/05 01:40:17;;;;;;;295.33;283.47;;;11.30;99.90;;;;;;4410254;32;20182;-66
2021/10/05 01:42:43;;;;;;;267.57;256.63;;;11.30;99.90;;;;;;4407640;32;20261;-66
2021/10/05 01:45:10;;;;;;;289.10;276.90;;;11.20;99.90;;;;;;4406878;32;20155;-67
2021/10/05 01:47:39;;;;;;;282.83;271.07;;;11.10;99.90;;;;;;4407647;32;20171;-65
2021/10/05 01:50:07;;;;;;;296.90;284.50;;;11.10;99.90;;;;;;4418885;32;20177;-68
2021/10/05 01:52:37;;;;;;;273.30;261.90;;;11.20;99.90;;;;;;4422560;32;20206;-66
2021/10/05 01:55:04;;;;;;;287.53;275.80;;;11.20;99.90;;;;;;4421228;32;20194;-65
2021/10/05 01:57:32;;;;;;;289.73;278.00;;;11.10;99.90;;;;;;4420843;32;20222;-66
2021/10/05 01:59:59;;;;;;;291.73;279.93;;;11.10;99.90;;;;;;4421724;32;20536;-66
2021/10/05 02:02:26;;;;;;;280.53;269.13;;;11.10;99.90;;;;;;4423428;32;20170;-66
2021/10/05 02:04:53;;;;;;;287.83;276.07;;;11.20;99.90;;;;;;4407497;32;20156;-65
2021/10/05 02:07:20;;;;;;;277.17;266.03;;;11.20;99.90;;;;;;4407365;32;20519;-65
2021/10/05 02:09:48;;;;;;;292.63;280.80;;;11.30;99.90;;;;;;4422914;32;20155;-65
2021/10/05 02:12:15;;;;;;;271.47;260.00;;;11.20;99.90;;;;;;4422296;32;20156;-65
2021/10/05 02:14:44;;;;;;;290.37;278.40;;;11.10;99.90;;;;;;4408714;32;20189;-65
2021/10/05 02:17:11;;;;;;;282.97;271.13;;;11.10;99.90;;;;;;4407131;32;20178;-68
2021/10/05 02:19:38;;;;;;;295.33;282.77;;;11.00;99.90;;;;;;4420389;32;20223;-65
2021/10/05 02:22:05;;;;;;;289.07;277.00;;;11.00;99.90;;;;;;4422274;32;20151;-68
2021/10/05 02:24:44;;;;;;;289.00;276.93;;;10.90;99.90;;;;;;4410815;32;20184;-65
2021/10/05 02:27:17;;;;;;;289.00;277.27;;;10.90;99.90;;;;;;4407610;32;20590;-66
2021/10/05 02:29:46;;;;;;;294.23;282.20;;;10.90;99.90;;;;;;4418875;32;20215;-67
2021/10/05 02:32:15;;;;;;;296.70;284.20;;;10.90;99.90;;;;;;4422172;32;20174;-66
2021/10/05 02:34:42;;;;;;;279.47;267.83;;;10.90;99.90;;;;;;4409968;32;20160;-68
2021/10/05 02:37:09;;;;;;;267.63;256.60;;;11.00;99.90;;;;;;4408680;32;20178;-66
2021/10/05 02:39:36;;;;;;;303.77;290.83;;;11.10;99.90;;;;;;4419398;32;20540;-66
2021/10/05 02:42:04;;;;;;;296.17;283.93;;;11.20;99.90;;;;;;4423650;32;20508;-69
2021/10/05 02:44:31;;;;;;;279.17;267.60;;;11.30;99.90;;;;;;4411410;32;20182;-65
2021/10/05 02:46:59;;;;;;;300.20;287.53;;;11.30;99.90;;;;;;4408363;32;20164;-65
2021/10/05 02:49:26;;;;;;;283.97;272.37;;;11.40;99.90;;;;;;4415915;32;20190;-65
2021/10/05 02:51:53;;;;;;;287.97;276.30;;;11.40;99.90;;;;;;4421740;32;20182;-66
2021/10/05 02:54:19;;;;;;;289.60;277.73;;;11.50;99.90;;;;;;4414623;32;20190;-67
2021/10/05 02:56:46;;;;;;;276.63;265.47;;;11.60;99.90;;;;;;4406375;32;20192;-66
2021/10/05 02:59:15;;;;;;;276.03;264.63;;;11.50;99.90;;;;;;4413582;32;20171;-64
2021/10/05 03:01:43;;;;;;;280.83;269.33;;;11.50;99.90;;;;;;4421769;32;20175;-66
2021/10/05 03:04:11;;;;;;;269.50;258.47;;;11.40;99.90;;;;;;4421530;32;20201;-66
2021/10/05 03:06:38;;;;;;;256.63;245.80;;;11.30;99.90;;;;;;4421714;32;20167;-65
2021/10/05 03:09:05;;;;;;;269.07;258.03;;;11.30;99.90;;;;;;4408550;32;20155;-65
2021/10/05 03:11:31;;;;;;;284.73;273.17;;;11.20;99.90;;;;;;4415752;32;20175;-66
2021/10/05 03:13:59;;;;;;;284.97;273.07;;;11.20;99.90;;;;;;4413633;32;20175;-65
2021/10/05 03:16:25;;;;;;;295.60;283.40;;;11.20;99.90;;;;;;4405936;32;20187;-65
2021/10/05 03:18:52;;;;;;;278.17;266.87;;;11.30;99.90;;;;;;4412565;32;20167;-65
2021/10/05 03:21:20;;;;;;;281.17;269.57;;;11.40;99.90;;;;;;4421387;32;20153;-65
2021/10/05 03:23:47;;;;;;;280.83;269.43;;;11.50;99.90;;;;;;4415616;32;20151;-68
2021/10/05 03:26:15;;;;;;;278.07;266.83;;;11.40;99.90;;;;;;4409936;32;20594;-67
2021/10/05 03:28:42;;;;;;;277.20;265.83;;;11.40;99.90;;;;;;4421184;32;20186;-68
2021/10/05 03:31:12;;;;;;;286.23;274.53;;;11.40;99.90;;;;;;4419714;32;20175;-67
2021/10/05 03:33:40;;;;;;;273.13;262.03;;;11.40;99.90;;;;;;4406116;32;20152;-65
2021/10/05 03:36:10;;;;;;;266.00;255.27;;;11.40;99.90;;;;;;4407984;32;20215;-66
2021/10/05 03:38:39;;;;;;;279.60;267.97;;;11.50;99.90;;;;;;4421236;32;20604;-67
2021/10/05 03:41:09;;;;;;;268.20;257.27;;;11.50;99.90;;;;;;4419256;32;20155;-67
2021/10/05 03:43:38;;;;;;;289.67;277.53;;;11.50;99.90;;;;;;4406314;32;20540;-67
2021/10/05 03:46:05;;;;;;;282.70;271.07;;;11.50;99.90;;;;;;4408374;32;20611;-67
2021/10/05 03:48:37;;;;;;;276.23;264.93;;;11.50;99.90;;;;;;4421162;32;20206;-67
2021/10/05 03:51:04;;;;;;;269.70;258.50;;;11.40;99.90;;;;;;4420448;32;20156;-67
2021/10/05 03:53:31;;;;;;;275.83;264.63;;;11.30;99.90;;;;;;4405810;32;20200;-66
2021/10/05 03:56:00;;;;;;;285.50;273.80;;;11.40;99.90;;;;;;4405146;32;20567;-65
2021/10/05 03:58:27;;;;;;;277.43;266.03;;;11.40;99.90;;;;;;4409213;32;20218;-66
2021/10/05 04:00:55;;;;;;;281.67;269.80;;;11.40;99.90;;;;;;4405676;32;20174;-65
2021/10/05 04:03:23;;;;;;;291.40;279.70;;;11.40;99.90;;;;;;4405564;32;20207;-65
2021/10/05 04:05:50;;;;;;;286.07;274.33;;;11.50;99.90;;;;;;4411514;32;20155;-65
2021/10/05 04:08:17;;;;;;;282.07;270.30;;;11.50;99.90;;;;;;4421130;32;20181;-67
2021/10/05 04:10:44;;;;;;;283.60;271.97;;;11.60;99.90;;;;;;4415377;32;20168;-64
2021/10/05 04:13:14;;;;;;;286.53;274.87;;;11.60;99.90;;;;;;4406477;32;20147;-67
2021/10/05 04:15:44;;;;;;;255.07;244.70;;;11.70;99.90;;;;;;4405640;32;20198;-67
2021/10/05 04:18:12;;;;;;;267.37;256.50;;;11.70;99.90;;;;;;4405784;32;20136;-65
2021/10/05 04:20:38;;;;;;;285.43;273.80;;;11.80;99.90;;;;;;4409955;32;20151;-65
2021/10/05 04:23:05;;;;;;;280.20;268.90;;;11.80;99.90;;;;;;4420612;32;20262;-66
2021/10/05 04:25:32;;;;;;;269.00;258.03;;;11.80;99.90;;;;;;4409671;32;20219;-67
2021/10/05 04:28:01;;;;;;;272.63;261.23;;;11.90;99.90;;;;;;4417545;32;20166;-65
2021/10/05 04:30:30;;;;;;;262.83;251.77;;;11.90;99.90;;;;;;4410301;32;20166;-67
2021/10/05 04:32:56;;;;;;;276.07;264.73;;;11.90;99.90;;;;;;4405065;32;20175;-66
2021/10/05 04:35:28;;;;;;;266.20;255.53;;;11.90;99.90;;;;;;4404205;32;20481;-64
2021/10/05 04:37:55;;;;;;;270.23;259.13;;;11.90;99.90;;;;;;4402778;32;20168;-65
2021/10/05 04:40:22;;;;;;;287.90;276.27;;;11.80;99.90;;;;;;4418886;32;20159;-67
2021/10/05 04:42:49;;;;;;;276.37;265.13;;;11.90;99.90;;;;;;4399134;32;20607;-64
2021/10/05 04:45:15;;;;;;;271.93;260.77;;;11.80;99.90;;;;;;4403377;32;20183;-63
2021/10/05 04:47:44;;;;;;;265.97;254.97;;;11.70;99.90;;;;;;4401286;32;20178;-64
2021/10/05 04:50:14;;;;;;;286.03;274.47;;;11.60;99.90;;;;;;4395247;32;20602;-64
2021/10/05 04:52:42;;;;;;;276.37;264.90;;;11.60;99.90;;;;;;4407941;32;20582;-64
2021/10/05 04:55:10;;;;;;;281.80;270.43;;;11.50;99.90;;;;;;4413795;32;20160;-64
2021/10/05 04:57:36;;;;;;;278.50;267.30;;;11.50;99.90;;;;;;4409587;32;20325;-64
2021/10/05 05:00:05;;;;;;;278.80;267.60;;;11.40;99.90;;;;;;4411520;32;20171;-67
2021/10/05 05:02:31;;;;;;;285.20;273.67;;;11.40;99.90;;;;;;4407241;32;20163;-65
2021/10/05 05:05:00;;;;;;;289.73;277.93;;;11.30;99.90;;;;;;4405687;32;21041;-66
2021/10/05 05:07:27;;;;;;;275.80;264.67;;;11.30;99.90;;;;;;4405387;32;20167;-68
2021/10/05 05:09:55;;;;;;;296.60;284.70;;;11.30;99.90;;;;;;4409506;32;20178;-66
2021/10/05 05:12:22;;;;;;;281.87;270.37;;;11.30;99.90;;;;;;4409698;32;20611;-67
2021/10/05 05:14:49;;;;;;;299.73;287.37;;;11.20;99.90;;;;;;4409128;32;20178;-67
2021/10/05 05:17:15;;;;;;;284.37;272.73;;;11.20;99.90;;;;;;4407356;32;20246;-68
2021/10/05 05:19:45;;;;;;;299.33;286.93;;;11.20;99.90;;;;;;4407461;32;20227;-66
2021/10/05 05:22:14;;;;;;;290.03;278.07;;;11.10;99.90;;;;;;4412977;32;20152;-67
2021/10/05 05:24:41;;;;;;;276.97;265.83;;;11.10;99.90;;;;;;4407782;32;20167;-65
2021/10/05 05:27:07;;;;;;;291.57;279.67;;;11.10;99.90;;;;;;4407004;32;20164;-66
2021/10/05 05:29:34;;;;;;;298.80;286.73;;;11.10;99.90;;;;;;4406500;32;20183;-65
2021/10/05 05:32:01;;;;;;;290.00;278.10;;;11.00;99.90;;;;;;4406930;32;20163;-65
2021/10/05 05:34:29;;;;;;;302.97;290.50;;;11.00;99.90;;;;;;4402019;32;20152;-69
2021/10/05 05:37:00;;;;;;;305.57;292.70;;;11.00;99.90;;;;;;4394956;32;20236;-66
2021/10/05 05:39:30;;;;;;;315.20;302.27;;;11.10;99.90;;;;;;4392194;32;20266;-66
2021/10/05 05:41:58;;;;;;;307.07;294.60;;;11.00;99.90;;;;;;4393281;32;20229;-67
2021/10/05 05:44:27;;;;;;;312.07;299.23;;;11.10;99.90;;;;;;4399109;32;20206;-65
2021/10/05 05:47:00;;;;;;;284.97;273.30;;;11.10;99.90;;;;;;4392174;32;20618;-65
2021/10/05 05:49:27;;;;;;;317.73;304.63;;;11.20;99.90;;;;;;4403110;32;20211;-65
2021/10/05 05:51:54;;;;;;;300.17;287.53;;;11.30;99.90;;;;;;4408622;32;20148;-67
2021/10/05 05:54:21;;;;;;;300.47;288.13;;;11.30;99.90;;;;;;4407477;32;20155;-66
2021/10/05 05:56:50;;;;;;;290.97;279.03;;;11.40;99.90;;;;;;4407264;32;20617;-66
2021/10/05 05:59:17;;;;;;;285.40;273.57;;;11.40;99.90;;;;;;4406487;32;20151;-67
2021/10/05 06:01:44;;;;;;;289.87;278.10;;;11.50;99.90;;;;;;4407411;32;20235;-66
2021/10/05 06:04:14;;;;;;;280.20;268.93;;;11.40;99.90;;;;;;4395848;32;20149;-66
2021/10/05 06:06:41;;;;;;;258.37;247.73;;;11.40;99.90;;;;;;4406341;32;20243;-67
2021/10/05 06:09:08;;;;;;;272.10;261.13;;;11.40;99.90;;;;;;4406320;32;20174;-65
2021/10/05 06:11:37;;;;;;;292.77;280.80;;;11.40;99.90;;;;;;4406402;32;20160;-66
2021/10/05 06:14:06;;;;;;;286.60;274.80;;;11.30;99.90;;;;;;4407312;32;20148;-66
2021/10/05 06:16:33;;;;;;;292.53;280.43;;;11.20;99.90;;;;;;4407197;32;20182;-69
2021/10/05 06:18:59;;;;;;;304.00;291.53;;;11.10;99.90;;;;;;4406199;32;20491;-65
2021/10/05 06:21:26;;;;;;;293.23;281.23;;;11.00;99.90;;;;;;4406518;32;20159;-67
2021/10/05 06:23:53;;;;;;;307.97;294.97;;;11.10;99.90;;;;;;4407304;32;20187;-66
2021/10/05 06:26:20;;;;;;;286.03;274.27;;;11.20;99.90;;;;;;4408349;32;20231;-66
2021/10/05 06:28:47;;;;;;;286.40;274.67;;;11.10;99.90;;;;;;4406554;32;20170;-64
2021/10/05 06:31:15;;;;;;;302.47;290.03;;;11.10;99.90;;;;;;4408502;32;20159;-66
2021/10/05 06:33:42;;;;;;;284.03;272.57;;;11.20;99.90;;;;;;4405538;32;20522;-64
2021/10/05 06:36:09;;;;;;;291.77;279.73;;;11.10;99.90;;;;;;4407118;32;20147;-64
2021/10/05 06:38:44;;;;;;;295.33;283.33;;;11.20;99.90;;;;;;4407164;32;20183;-65
2021/10/05 06:41:14;;;;;;;309.13;296.47;;;11.20;99.90;;;;;;4406805;32;20142;-64
2021/10/05 06:43:41;;;;;;;297.50;285.30;;;11.20;99.90;;;;;;4406826;32;20148;-65
2021/10/05 06:46:07;;;;;;;296.60;284.30;;;11.30;99.90;;;;;;4407531;32;20471;-65
2021/10/05 06:48:36;;;;;;;299.43;286.93;;;11.30;99.90;;;;;;4406904;32;20174;-66
2021/10/05 06:51:03;;;;;;;302.13;289.57;;;11.30;99.90;;;;;;4407189;32;20460;-65
2021/10/05 06:53:30;;;;;;;307.60;294.70;;;11.40;99.90;;;;;;4406570;32;20147;-66
2021/10/05 06:55:57;;;;;;;294.93;282.57;;;11.40;99.90;;;;;;4407994;32;20187;-66
2021/10/05 06:58:23;;;;;;;271.53;260.33;;;11.40;99.90;;;;;;4407247;32;20598;-65
2021/10/05 07:00:50;;;;;;;298.07;285.97;;;11.40;99.90;;;;;;4406505;32;20151;-63
2021/10/05 07:03:17;;;;;;;296.47;284.43;;;11.40;99.90;;;;;;4406584;32;20187;-64
2021/10/05 07:05:46;;;;;;;272.10;260.63;;;11.50;99.90;;;;;;4406561;32;20174;-66
2021/10/05 07:08:14;;;;;;;275.00;263.67;;;11.60;99.90;;;;;;4406402;32;20167;-66
2021/10/05 07:10:41;;;;;;;302.07;289.73;;;11.60;99.90;;;;;;4406410;32;20163;-64
2021/10/05 07:13:08;;;;;;;286.57;274.93;;;11.60;99.90;;;;;;4408070;32;20143;-65
2021/10/05 07:15:36;;;;;;;289.77;277.63;;;11.70;99.90;;;;;;4408197;32;20174;-66
2021/10/05 07:18:03;;;;;;;271.70;260.60;;;11.70;99.90;;;;;;4406621;32;20170;-65
2021/10/05 07:20:32;;;;;;;281.87;270.40;;;11.80;99.90;;;;;;4406226;32;20582;-67
2021/10/05 07:23:00;;;;;;;270.73;259.97;;;11.80;99.90;;;;;;4407552;32;20576;-66
2021/10/05 07:25:28;;;;;;;282.43;270.90;;;11.90;99.90;;;;;;4406978;32;20148;-65
2021/10/05 07:27:55;;;;;;;270.33;259.23;;;11.90;99.90;;;;;;4406422;32;20178;-65
2021/10/05 07:30:34;;;;;;;264.77;254.13;;;12.00;99.90;;;;;;4405924;32;20147;-66
2021/10/05 07:33:06;;;;;;;280.93;269.73;;;12.10;99.90;;;;;;4406672;32;20174;-67
2021/10/05 07:35:33;;;;;;;254.83;244.60;;;12.10;99.90;;;;;;4407792;32;20170;-65
2021/10/05 07:38:02;;;;;;;279.77;268.10;;;12.20;99.90;;;;;;4405972;32;20166;-64
2021/10/05 07:40:29;;;;;;;286.20;274.53;;;12.30;99.90;;;;;;4406610;32;20166;-65
2021/10/05 07:42:59;;;;;;;263.07;252.17;;;12.40;99.90;;;;;;4405789;32;20576;-65
2021/10/05 07:45:27;;;;;;;263.33;252.23;;;12.50;99.90;;;;;;4405854;32;20471;-65
2021/10/05 07:47:57;;;;;;;265.47;254.67;;;12.60;99.90;;;;;;4406733;32;20152;-65
2021/10/05 07:50:26;;;;;;;265.40;254.63;;;12.60;99.90;;;;;;4405917;32;20151;-66
2021/10/05 07:52:53;;;;;;;250.40;240.27;;;12.70;99.90;;;;;;4405976;32;20152;-65
2021/10/05 07:55:24;;;;;;;242.13;232.00;;;12.80;99.90;;;;;;4309496;32;3106727;-65
2021/10/05 07:57:54;;;;;;;234.33;224.67;;;13.00;99.90;;;;;;4399051;32;20569;-65
2021/10/05 08:00:22;;;;;;;234.57;225.00;;;13.00;99.90;;;;;;4390670;32;20152;-66
2021/10/05 08:02:51;;;;;;;255.57;245.30;;;13.10;99.90;;;;;;4391130;32;20168;-67
2021/10/05 08:05:19;;;;;;;238.30;228.57;;;13.10;99.90;;;;;;4390630;32;20167;-66
2021/10/05 08:07:47;;;;;;;255.10;244.70;;;13.30;99.90;;;;;;4390311;32;20144;-65
2021/10/05 08:10:15;;;;;;;221.93;212.80;;;13.30;99.90;;;;;;4390475;32;20160;-64
2021/10/05 08:12:43;;;;;;;224.73;215.67;;;13.40;99.90;;;;;;4390468;32;20183;-65
2021/10/05 08:15:10;;;;;;;234.80;225.23;;;13.50;99.90;;;;;;4390503;32;20144;-64
2021/10/05 08:17:38;;;;;;;238.27;228.63;;;13.60;99.90;;;;;;4390907;32;20156;-64
2021/10/05 08:20:06;;;;;;;228.50;219.10;;;13.70;99.90;;;;;;4401822;32;20200;-66
2021/10/05 08:22:33;;;;;;;234.03;224.37;;;13.90;99.90;;;;;;4405797;32;20158;-66
2021/10/05 08:25:00;;;;;;;210.30;201.57;;;14.00;99.90;;;;;;4407289;32;20174;-65
2021/10/05 08:27:27;;;;;;;205.53;197.13;;;14.00;99.90;;;;;;4407271;32;20209;-65
2021/10/05 08:29:55;;;;;;;219.63;210.90;;;14.10;99.90;;;;;;4407154;32;20154;-65
2021/10/05 08:32:22;;;;;;;199.73;191.23;;;14.20;99.90;;;;;;4406065;32;20155;-65
2021/10/05 08:34:48;;;;;;;199.83;191.73;;;14.30;99.90;;;;;;4405492;32;20175;-65
2021/10/05 08:37:15;;;;;;;212.20;203.63;;;14.30;99.90;;;;;;4405405;32;20144;-66
2021/10/05 08:39:42;;;;;;;199.90;191.73;;;14.50;99.90;;;;;;4405320;32;20210;-66
2021/10/05 08:42:09;;;;;;;179.07;171.50;;;14.60;99.90;;;;;;4406373;32;20575;-67
2021/10/05 08:44:36;;;;;;;181.67;173.87;;;14.60;99.90;;;;;;4408638;32;20161;-66
2021/10/05 08:47:05;;;;;;;192.93;185.03;;;14.60;99.90;;;;;;4408438;32;20238;-66
2021/10/05 08:49:34;;;;;;;177.47;170.10;;;14.60;99.90;;;;;;4408448;32;20158;-66
2021/10/05 08:52:01;;;;;;;175.90;168.77;;;14.70;99.90;;;;;;4408401;32;20162;-65
2021/10/05 08:54:35;;;;;;;159.37;152.57;;;14.70;99.90;;;;;;4408034;32;20471;-64
2021/10/05 08:57:02;;;;;;;190.57;182.97;;;14.80;99.90;;;;;;4408015;32;20156;-65
2021/10/05 08:59:28;;;;;;;175.20;167.97;;;14.90;99.90;;;;;;4408576;32;20154;-66
2021/10/05 09:01:57;;;;;;;174.60;167.43;;;15.00;99.90;;;;;;4408131;32;20540;-65
2021/10/05 09:04:25;;;;;;;162.13;155.50;;;15.00;99.90;;;;;;4408666;32;20137;-64
2021/10/05 09:06:54;;;;;;;157.63;151.17;;;15.10;99.90;;;;;;4408171;32;20155;-65
2021/10/05 09:09:21;;;;;;;160.60;153.93;;;15.10;99.90;;;;;;4409564;32;20149;-66
2021/10/05 09:11:52;;;;;;;171.93;164.53;;;15.20;99.90;;;;;;4407964;32;20143;-66
2021/10/05 09:14:19;;;;;;;180.67;173.33;;;15.30;99.90;;;;;;4408750;32;20185;-66
2021/10/05 09:16:46;;;;;;;155.47;148.87;;;15.30;99.90;;;;;;4408808;32;20219;-65
2021/10/05 09:19:15;;;;;;;159.73;153.23;;;15.40;99.90;;;;;;4409359;32;20136;-65
2021/10/05 09:21:48;;;;;;;158.50;151.97;;;15.40;99.90;;;;;;4408449;32;20218;-65
2021/10/05 09:24:27;;;;;;;165.40;158.43;;;15.50;99.90;;;;;;4407914;32;20193;-66
2021/10/05 09:26:57;;;;;;;152.17;145.97;;;15.50;99.90;;;;;;4408166;32;20135;-65
2021/10/05 09:29:32;;;;;;;160.53;153.90;;;15.60;99.90;;;;;;4407880;32;20492;-65
2021/10/05 09:32:00;;;;;;;155.63;149.03;;;15.70;99.90;;;;;;4409015;32;20174;-64
2021/10/05 09:34:50;;;;;;;157.83;151.43;;;15.70;99.90;;;;;;4409449;32;20140;-66
2021/10/05 09:37:20;;;;;;;148.70;142.40;;;15.80;99.90;;;;;;4407892;32;20139;-66
2021/10/05 09:39:49;;;;;;;148.27;142.17;;;15.90;99.90;;;;;;4407521;32;20152;-64
2021/10/05 09:42:23;;;;;;;134.40;128.73;;;16.10;99.90;;;;;;4407448;32;20467;-64
2021/10/05 09:44:56;;;;;;;139.03;133.07;;;16.20;99.90;;;;;;4407869;32;20167;-64
2021/10/05 09:47:34;;;;;;;149.17;143.10;;;16.30;99.90;;;;;;4407791;32;20594;-63
2021/10/05 09:50:08;;;;;;;134.90;129.23;;;16.30;99.90;;;;;;4407640;32;20135;-64
2021/10/05 09:52:44;;;;;;;124.90;119.67;;;16.40;99.90;;;;;;4407667;32;20159;-65
2021/10/05 09:55:12;;;;;;;127.10;121.83;;;16.60;99.90;;;;;;4406685;32;20178;-66
2021/10/05 09:57:39;;;;;;;130.73;125.40;;;16.70;99.90;;;;;;4408069;32;20670;-64
2021/10/05 10:00:08;;;;;;;115.10;110.43;;;16.70;99.90;;;;;;4407157;32;20436;-65
2021/10/05 10:02:37;;;;;;;122.30;116.97;;;16.70;99.90;;;;;;4407340;32;20219;-65
2021/10/05 10:05:06;;;;;;;117.80;112.90;;;16.70;99.90;;;;;;4407163;32;20148;-65
2021/10/05 10:07:37;;;;;;;128.40;123.00;;;16.80;99.90;;;;;;4407089;32;20147;-65
2021/10/05 10:10:10;;;;;;;125.20;119.40;;;16.70;99.90;;;;;;4406865;32;20139;-65
2021/10/05 10:12:37;;;;;;;124.37;119.27;;;16.70;99.90;;;;;;4407017;32;20616;-66
2021/10/05 10:15:05;;;;;;;125.00;119.90;;;16.90;99.90;;;;;;4406792;32;20162;-65
2021/10/05 10:17:32;;;;;;;130.37;123.67;;;16.80;99.90;;;;;;4406904;32;20183;-64
2021/10/05 10:20:00;;;;;;;123.87;118.70;;;16.90;99.90;;;;;;4408344;32;20201;-66
2021/10/05 10:22:27;;;;;;;121.30;116.07;;;16.90;99.90;;;;;;4406790;32;20223;-67
2021/10/05 10:24:58;;;;;;;126.30;120.73;;;16.80;99.90;;;;;;4406707;32;20242;-67
2021/10/05 10:27:26;;;;;;;126.90;121.60;;;16.80;99.90;;;;;;4408734;32;20140;-66
2021/10/05 10:29:54;;;;;;;115.83;110.87;;;16.80;99.90;;;;;;4406859;32;20151;-66
2021/10/05 10:32:24;;;;;;;133.57;127.83;;;16.80;99.90;;;;;;4406860;32;20522;-66
2021/10/05 10:35:03;;;;;;;113.93;109.33;;;16.90;99.90;;;;;;4408337;32;20144;-68
2021/10/05 10:37:41;;;;;;;123.20;118.03;;;17.10;99.90;;;;;;4408333;32;20140;-65
2021/10/05 10:40:09;;;;;;;104.03;99.77;;;17.40;99.90;;;;;;4406990;32;20668;-65
2021/10/05 10:42:38;;;;;;;101.10;96.77;;;17.50;99.90;;;;;;4406818;32;20148;-66
2021/10/05 10:45:16;;;;;;;97.10;92.93;;;17.70;99.90;;;;;;4406934;32;20231;-67
2021/10/05 10:47:49;;;;;;;104.27;99.57;;;17.70;99.90;;;;;;4406761;32;20181;-66
2021/10/05 10:50:17;;;;;;;98.73;94.33;;;17.70;99.90;;;;;;4403957;32;20158;-65
2021/10/05 10:52:45;;;;;;;109.07;104.50;;;17.70;99.90;;;;;;4406252;32;20171;-67
2021/10/05 10:55:14;;;;;;;96.50;92.43;;;17.80;99.90;;;;;;4405647;32;20239;-65
2021/10/05 10:57:45;;;;;;;94.83;90.57;;;17.60;99.90;;;;;;4404903;32;20231;-65
2021/10/05 11:00:19;;;;;;;92.97;88.87;;;17.50;99.90;;;;;;4401925;32;20239;-66
2021/10/05 11:02:48;;;;;;;94.53;90.70;;;17.30;99.90;;;;;;4406380;32;20247;-66
2021/10/05 11:05:17;;;;;;;90.27;86.43;;;17.20;99.90;;;;;;4405410;32;20159;-67
2021/10/05 11:07:48;;;;;;;90.83;86.97;;;17.20;99.90;;;;;;4402644;32;20148;-65
2021/10/05 11:10:27;;;;;;;83.97;80.47;;;17.30;99.90;;;;;;4405375;32;20193;-65
2021/10/05 11:12:57;;;;;;;87.67;83.80;;;17.40;99.90;;;;;;4405610;32;20147;-66
2021/10/05 11:15:32;;;;;;;86.07;82.47;;;17.30;99.90;;;;;;4407675;32;20160;-65
2021/10/05 11:18:16;;;;;;;91.90;87.97;;;17.30;99.90;;;;;;4407396;32;20205;-66
2021/10/05 11:20:50;;;;;;;93.73;89.90;;;17.30;99.90;;;;;;4400099;32;20167;-65
2021/10/05 11:23:21;;;;;;;85.07;81.17;;;17.30;99.90;;;;;;4404834;32;20165;-64
2021/10/05 11:25:51;;;;;;;78.90;75.60;;;17.40;99.90;;;;;;4402915;32;20148;-63
2021/10/05 11:28:23;;;;;;;79.50;76.27;;;17.40;99.90;;;;;;4404444;32;20488;-64
2021/10/05 11:30:56;;;;;;;88.60;85.10;;;17.40;99.90;;;;;;4404739;32;20151;-64
2021/10/05 11:33:26;;;;;;;74.60;71.30;;;17.40;99.90;;;;;;4405337;32;20266;-65
2021/10/05 11:35:59;;;;;;;85.33;81.67;;;17.50;99.90;;;;;;4405854;32;20162;-64
2021/10/05 11:38:38;;;;;;;80.90;77.20;;;17.60;99.90;;;;;;4405913;32;20148;-63
2021/10/05 11:41:05;;;;;;;83.30;79.77;;;17.50;99.90;;;;;;4404896;32;20135;-65
2021/10/05 11:43:39;;;;;;;89.63;85.63;;;17.40;99.90;;;;;;4404640;32;20519;-65
2021/10/05 11:46:14;;;;;;;99.33;95.13;;;17.20;99.90;;;;;;4403066;32;20167;-65
2021/10/05 11:48:54;;;;;;;94.40;90.53;;;17.00;99.90;;;;;;4389731;32;20183;-66
2021/10/05 11:51:24;;;;;;;97.03;93.07;;;16.80;99.90;;;;;;4387377;32;20144;-66
2021/10/05 11:53:58;;;;;;;94.73;90.70;;;16.80;99.90;;;;;;4391344;32;20625;-63
2021/10/05 11:56:28;;;;;;;101.27;97.03;;;16.80;99.90;;;;;;4385481;32;20602;-65
2021/10/05 11:59:05;;;;;;;93.07;89.33;;;17.10;99.90;;;;;;4389192;32;20241;-66
2021/10/05 12:01:34;;;;;;;90.37;86.37;;;17.20;99.90;;;;;;4388951;32;20186;-65
2021/10/05 12:04:08;;;;;;;87.30;83.67;;;17.30;99.90;;;;;;4402067;32;20170;-63
2021/10/05 12:06:43;;;;;;;94.00;89.90;;;17.30;99.90;;;;;;4392564;32;20537;-65
2021/10/05 12:09:18;;;;;;;96.50;92.60;;;17.20;99.90;;;;;;4385680;32;20171;-66
2021/10/05 12:11:47;;;;;;;91.43;87.40;;;17.10;99.90;;;;;;4383068;32;20637;-65
2021/10/05 12:14:27;;;;;;;101.13;96.87;;;16.90;99.90;;;;;;4397291;32;20847;-63
2021/10/05 12:16:57;;;;;;;116.37;111.57;;;16.70;99.90;;;;;;4389510;32;20167;-66
2021/10/05 12:19:25;;;;;;;116.10;111.20;;;16.30;99.90;;;;;;4403984;32;20215;-67